Time;durP1;ratioP1;P1;durP2;ratioP2;P2;SDS_P1;SDS_P2;PMS_P1;PMS_P2;Temp;Humidity;BMP_temperature;BMP_pressure;BME280_temperature;BME280_humidity;BME280_pressure;Samples;Min_cycle;Max_cycle;Signal;HPM_P1;HPM_P2
2023/06/06 00:02:05;;;;;;;12.13;6.10;;;;;;;;;;5050680;28;20076;-88
2023/06/06 00:04:31;;;;;;;13.32;5.53;;;;;;;;;;5041553;28;20073;-87
2023/06/06 00:06:57;;;;;;;10.30;5.30;;;;;;;;;;5033806;28;20050;-88
2023/06/06 00:09:24;;;;;;;18.17;6.32;;;;;;;;;;5003378;28;20132;-87
2023/06/06 00:11:50;;;;;;;12.75;5.65;;;;;;;;;;5049759;28;20072;-88
2023/06/06 00:14:18;;;;;;;;;;;;;;;;;;5050840;28;20041;-89
2023/06/06 00:16:49;;;;;;;12.77;5.97;;;;;;;;;;5050221;28;19920;-88
2023/06/06 00:19:16;;;;;;;12.75;5.80;;;;;;;;;;5032635;28;20060;-88
2023/06/06 00:21:42;;;;;;;14.93;5.95;;;;;;;;;;5049517;28;20048;-88
2023/06/06 00:24:11;;;;;;;13.23;6.15;;;;;;;;;;5017311;28;20055;-88
2023/06/06 00:26:37;;;;;;;16.50;6.03;;;;;;;;;;5017217;28;20091;-88
2023/06/06 00:29:03;;;;;;;;;;;;;;;;;;5021132;28;20041;-88
2023/06/06 00:31:29;;;;;;;11.73;5.75;;;;;;;;;;5048912;28;20333;-85
2023/06/06 00:33:55;;;;;;;12.45;6.18;;;;;;;;;;5035771;28;20153;-87
2023/06/06 00:36:21;;;;;;;14.38;6.25;;;;;;;;;;5043089;28;20104;-86
2023/06/06 00:38:47;;;;;;;11.95;6.30;;;;;;;;;;5013200;28;20045;-88
2023/06/06 00:41:14;;;;;;;12.23;6.20;;;;;;;;;;5013757;28;20132;-87
2023/06/06 00:43:40;;;;;;;14.55;6.90;;;;;;;;;;5029676;28;20053;-87
2023/06/06 00:46:07;;;;;;;15.40;6.72;;;;;;;;;;5013549;28;20151;-87
2023/06/06 00:48:33;;;;;;;12.32;5.50;;;;;;;;;;5028934;28;20141;-86
2023/06/06 00:50:59;;;;;;;11.77;5.93;;;;;;;;;;5013347;28;20049;-87
2023/06/06 00:53:25;;;;;;;14.45;5.60;;;;;;;;;;4997765;28;20053;-88
2023/06/06 00:55:52;;;;;;;11.95;5.82;;;;;;;;;;5033967;28;20045;-87
2023/06/06 00:58:18;;;;;;;15.27;5.47;;;;;;;;;;5006554;28;20053;-87
2023/06/06 01:00:44;;;;;;;;;;;;;;;;;;5047021;28;20060;-86
2023/06/06 01:03:10;;;;;;;12.60;6.30;;;;;;;;;;5029377;28;19921;-88
2023/06/06 01:05:40;;;;;;;13.00;5.82;;;;;;;;;;5012559;28;20096;-88
2023/06/06 01:08:07;;;;;;;12.13;6.47;;;;;;;;;;5037464;28;20053;-88
2023/06/06 01:10:39;;;;;;;15.05;6.38;;;;;;;;;;5051965;28;20056;-86
2023/06/06 01:13:24;;;;;;;14.40;6.18;;;;;;;;;;5054085;28;20057;-88
2023/06/06 01:15:59;;;;;;;13.38;6.35;;;;;;;;;;5036738;28;20056;-88
2023/06/06 01:18:26;;;;;;;14.07;6.35;;;;;;;;;;5049604;28;20048;-88
2023/06/06 01:20:52;;;;;;;15.43;5.95;;;;;;;;;;5035683;28;20049;-87
2023/06/06 01:23:18;;;;;;;14.65;6.55;;;;;;;;;;5050813;28;20049;-88
2023/06/06 01:25:48;;;;;;;12.15;6.25;;;;;;;;;;5035676;28;20041;-88
2023/06/06 01:28:17;;;;;;;13.07;5.60;;;;;;;;;;5016618;28;20063;-88
2023/06/06 01:30:44;;;;;;;14.50;5.88;;;;;;;;;;5000340;28;20395;-86
2023/06/06 01:33:16;;;;;;;14.15;5.80;;;;;;;;;;5016405;28;20053;-88
2023/06/06 01:36:00;;;;;;;14.55;6.18;;;;;;;;;;5032434;28;20060;-86
2023/06/06 01:38:30;;;;;;;12.93;5.45;;;;;;;;;;5017150;28;20095;-88
2023/06/06 01:40:58;;;;;;;12.77;5.88;;;;;;;;;;5018847;28;20637;-88
2023/06/06 01:43:26;;;;;;;14.25;6.13;;;;;;;;;;5033750;28;20084;-88
2023/06/06 01:45:53;;;;;;;13.15;6.10;;;;;;;;;;5016464;28;20046;-87
2023/06/06 01:48:19;;;;;;;13.70;6.65;;;;;;;;;;5000036;28;20052;-88
2023/06/06 01:50:46;;;;;;;14.32;6.60;;;;;;;;;;5015828;28;20144;-88
2023/06/06 01:53:12;;;;;;;16.08;6.40;;;;;;;;;;5004056;28;20111;-88
2023/06/06 01:55:39;;;;;;;15.98;6.50;;;;;;;;;;5062182;28;20502;-86
2023/06/06 01:58:05;;;;;;;16.90;6.45;;;;;;;;;;5033175;28;20110;-88
2023/06/06 02:00:31;;;;;;;16.10;6.10;;;;;;;;;;5032760;28;20566;-88
2023/06/06 02:02:57;;;;;;;10.95;5.75;;;;;;;;;;5032015;28;20053;-88
2023/06/06 02:05:23;;;;;;;13.95;6.03;;;;;;;;;;5049128;28;20045;-88
2023/06/06 02:07:51;;;;;;;16.27;6.63;;;;;;;;;;5032514;28;20057;-88
2023/06/06 02:10:17;;;;;;;10.77;5.60;;;;;;;;;;5049604;28;20038;-88
2023/06/06 02:12:43;;;;;;;;;;;;;;;;;;5049977;28;20050;-88
2023/06/06 02:15:14;;;;;;;14.07;6.00;;;;;;;;;;5049840;28;19931;-88
2023/06/06 02:17:41;;;;;;;10.82;6.15;;;;;;;;;;5050179;28;20050;-89
2023/06/06 02:20:09;;;;;;;13.82;6.45;;;;;;;;;;5035434;28;20045;-88
2023/06/06 02:22:35;;;;;;;13.18;6.60;;;;;;;;;;5031870;28;20060;-88
2023/06/06 02:25:03;;;;;;;13.35;6.22;;;;;;;;;;5015981;28;20241;-89
2023/06/06 02:27:30;;;;;;;17.38;6.80;;;;;;;;;;5033114;28;20052;-88
2023/06/06 02:29:56;;;;;;;14.85;6.68;;;;;;;;;;5016175;28;20057;-88
2023/06/06 02:32:23;;;;;;;;;;;;;;;;;;5016577;28;20061;-87
2023/06/06 02:34:50;;;;;;;14.45;6.82;;;;;;;;;;5031322;28;19936;-88
2023/06/06 02:37:16;;;;;;;14.70;6.07;;;;;;;;;;5028629;28;20037;-88
2023/06/06 02:39:42;;;;;;;;;;;;;;;;;;5018229;28;20081;-87
2023/06/06 02:42:08;;;;;;;14.40;6.30;;;;;;;;;;5051981;28;19978;-87
2023/06/06 02:44:34;;;;;;;;;;;;;;;;;;5036346;28;20045;-87
2023/06/06 02:47:00;;;;;;;12.23;6.05;;;;;;;;;;5051960;28;20374;-88
2023/06/06 02:49:27;;;;;;;14.90;6.78;;;;;;;;;;5034849;28;20498;-87
2023/06/06 02:51:55;;;;;;;15.48;7.40;;;;;;;;;;5047543;28;20099;-88
2023/06/06 02:54:21;;;;;;;13.98;6.80;;;;;;;;;;5049246;28;20473;-88
2023/06/06 02:56:47;;;;;;;13.60;6.88;;;;;;;;;;5015724;28;20107;-86
2023/06/06 02:59:13;;;;;;;;;;;;;;;;;;5016152;28;20053;-88
2023/06/06 03:01:44;;;;;;;16.85;7.47;;;;;;;;;;5032093;28;19936;-88
2023/06/06 03:04:11;;;;;;;16.10;6.82;;;;;;;;;;5023825;28;20053;-89
2023/06/06 03:06:39;;;;;;;15.80;7.60;;;;;;;;;;5031642;28;20118;-89
2023/06/06 03:09:05;;;;;;;14.40;7.05;;;;;;;;;;5015160;28;20057;-88
2023/06/06 03:11:31;;;;;;;;;;;;;;;;;;5033017;28;20049;-89
2023/06/06 03:13:58;;;;;;;17.33;8.52;;;;;;;;;;5031711;28;19928;-88
2023/06/06 03:16:28;;;;;;;17.63;8.32;;;;;;;;;;5029667;28;20126;-89
2023/06/06 03:18:54;;;;;;;20.73;9.32;;;;;;;;;;5030899;28;20045;-88
2023/06/06 03:21:20;;;;;;;19.83;9.45;;;;;;;;;;5014659;28;20540;-89
2023/06/06 03:23:47;;;;;;;20.33;8.88;;;;;;;;;;5031914;28;20057;-89
2023/06/06 03:26:13;;;;;;;18.02;9.25;;;;;;;;;;5031527;28;20041;-88
2023/06/06 03:28:39;;;;;;;20.25;10.40;;;;;;;;;;5030947;28;20049;-88
2023/06/06 03:31:07;;;;;;;20.05;9.88;;;;;;;;;;5031073;28;20118;-88
2023/06/06 03:33:35;;;;;;;19.50;9.27;;;;;;;;;;5019812;28;20049;-86
2023/06/06 03:36:01;;;;;;;21.42;10.10;;;;;;;;;;5014095;28;20057;-89
2023/06/06 03:38:27;;;;;;;19.88;10.18;;;;;;;;;;5031092;28;20042;-89
2023/06/06 03:40:54;;;;;;;19.27;10.57;;;;;;;;;;5031197;28;20068;-89
2023/06/06 03:43:20;;;;;;;;;;;;;;;;;;5016633;28;20060;-88
2023/06/06 03:45:46;;;;;;;17.80;9.98;;;;;;;;;;5031168;28;19921;-88
2023/06/06 03:48:12;;;;;;;17.05;10.30;;;;;;;;;;5030074;28;20691;-88
2023/06/06 03:50:39;;;;;;;22.05;10.60;;;;;;;;;;5014227;28;20041;-89
2023/06/06 03:53:05;;;;;;;16.40;8.60;;;;;;;;;;5021292;28;20073;-89
2023/06/06 03:55:34;;;;;;;17.73;9.93;;;;;;;;;;5035862;28;20124;-89
2023/06/06 03:58:03;;;;;;;17.60;10.00;;;;;;;;;;5031523;28;20045;-89
2023/06/06 04:00:30;;;;;;;22.27;10.40;;;;;;;;;;5014582;28;20140;-88
2023/06/06 04:02:56;;;;;;;18.02;8.57;;;;;;;;;;5013580;28;20059;-88
2023/06/06 04:05:23;;;;;;;20.48;8.68;;;;;;;;;;5030424;28;20053;-89
2023/06/06 04:07:49;;;;;;;17.35;8.27;;;;;;;;;;5047901;28;20148;-88
2023/06/06 04:10:15;;;;;;;;;;;;;;;;;;5031184;28;20042;-89
2023/06/06 04:12:41;;;;;;;17.83;8.65;;;;;;;;;;5014609;28;19925;-89
2023/06/06 04:15:10;;;;;;;15.07;8.10;;;;;;;;;;5014184;28;20041;-88
2023/06/06 04:17:36;;;;;;;18.92;7.78;;;;;;;;;;5014757;28;20048;-88
2023/06/06 04:20:05;;;;;;;;;;;;;;;;;;5050039;28;20489;-89
2023/06/06 04:22:31;;;;;;;14.75;7.20;;;;;;;;;;5039436;28;19974;-87
2023/06/06 04:24:57;;;;;;;;;;;;;;;;;;5030848;28;20092;-89
2023/06/06 04:27:23;;;;;;;16.15;8.50;;;;;;;;;;5030939;28;20025;-89
2023/06/06 04:29:57;;;;;;;15.02;7.18;;;;;;;;;;5014660;28;20056;-89
2023/06/06 04:32:24;;;;;;;15.27;7.65;;;;;;;;;;5013842;28;20049;-87
2023/06/06 04:34:51;;;;;;;12.88;7.47;;;;;;;;;;5023894;28;20528;-88
2023/06/06 04:37:18;;;;;;;17.75;7.50;;;;;;;;;;5014046;28;20415;-88
2023/06/06 04:39:44;;;;;;;15.68;7.72;;;;;;;;;;5030278;28;20046;-88
2023/06/06 04:42:12;;;;;;;;;;;;;;;;;;5030657;28;20140;-89
2023/06/06 04:44:46;;;;;;;14.10;7.47;;;;;;;;;;5030316;28;19921;-88
2023/06/06 04:47:14;;;;;;;15.25;8.10;;;;;;;;;;5034993;28;20067;-87
2023/06/06 04:49:40;;;;;;;15.15;7.30;;;;;;;;;;5016418;28;20053;-88
2023/06/06 04:52:08;;;;;;;15.57;7.38;;;;;;;;;;5018893;28;20053;-89
2023/06/06 04:54:34;;;;;;;15.50;6.97;;;;;;;;;;5018101;28;20137;-88
2023/06/06 04:57:01;;;;;;;14.13;7.10;;;;;;;;;;5017382;28;20053;-88
2023/06/06 04:59:27;;;;;;;17.48;6.93;;;;;;;;;;5017691;28;20055;-88
2023/06/06 05:01:57;;;;;;;15.93;7.50;;;;;;;;;;5034214;28;20053;-89
2023/06/06 05:04:24;;;;;;;11.98;6.65;;;;;;;;;;5020419;28;20049;-88
2023/06/06 05:06:50;;;;;;;15.82;6.63;;;;;;;;;;5034763;28;20087;-89
2023/06/06 05:09:17;;;;;;;11.88;6.68;;;;;;;;;;5068330;28;20057;-89
2023/06/06 05:11:48;;;;;;;13.60;6.50;;;;;;;;;;5054412;28;20053;-88
2023/06/06 05:14:14;;;;;;;14.05;6.25;;;;;;;;;;5036850;28;20063;-88
2023/06/06 05:16:40;;;;;;;16.17;5.80;;;;;;;;;;5037649;28;20045;-89
2023/06/06 05:19:06;;;;;;;19.58;6.03;;;;;;;;;;5042136;28;20041;-87
2023/06/06 05:21:33;;;;;;;18.60;6.65;;;;;;;;;;5033332;28;20156;-88
2023/06/06 05:24:00;;;;;;;12.57;5.75;;;;;;;;;;5050927;28;20044;-86
2023/06/06 05:26:26;;;;;;;;;;;;;;;;;;5037359;28;20127;-88
2023/06/06 05:28:52;;;;;;;10.82;5.47;;;;;;;;;;5037257;28;19979;-88
2023/06/06 05:31:21;;;;;;;11.18;5.55;;;;;;;;;;5020922;28;20049;-88
2023/06/06 05:33:47;;;;;;;14.48;6.38;;;;;;;;;;5033427;28;20046;-89
2023/06/06 05:36:14;;;;;;;10.48;5.57;;;;;;;;;;5032350;28;20053;-89
2023/06/06 05:38:41;;;;;;;13.40;5.72;;;;;;;;;;5033412;28;20483;-88
2023/06/06 05:41:07;;;;;;;14.07;6.05;;;;;;;;;;5016549;28;20061;-88
2023/06/06 05:43:33;;;;;;;13.73;5.45;;;;;;;;;;5016987;28;20049;-88
2023/06/06 05:46:01;;;;;;;9.80;4.88;;;;;;;;;;5016545;28;20045;-88
2023/06/06 05:48:27;;;;;;;11.32;5.20;;;;;;;;;;5015737;28;20045;-88
2023/06/06 05:50:53;;;;;;;;;;;;;;;;;;5066437;28;20479;-88
2023/06/06 05:53:21;;;;;;;14.55;5.55;;;;;;;;;;5027256;28;19927;-88
2023/06/06 05:55:47;;;;;;;11.05;5.82;;;;;;;;;;5027876;28;20114;-87
2023/06/06 05:58:13;;;;;;;;;;;;;;;;;;5036817;28;20052;-89
2023/06/06 06:00:39;;;;;;;12.98;5.53;;;;;;;;;;5036749;28;19928;-88
2023/06/06 06:03:08;;;;;;;11.05;5.53;;;;;;;;;;5035419;28;20070;-88
2023/06/06 06:05:35;;;;;;;17.40;6.03;;;;;;;;;;5036229;28;20048;-88
2023/06/06 06:08:02;;;;;;;12.93;5.68;;;;;;;;;;5036220;28;20391;-89
2023/06/06 06:10:28;;;;;;;14.57;6.10;;;;;;;;;;5052953;28;20057;-88
2023/06/06 06:12:55;;;;;;;11.07;5.25;;;;;;;;;;5034776;28;20128;-89
2023/06/06 06:15:21;;;;;;;11.38;5.22;;;;;;;;;;5035244;28;20041;-71
2023/06/06 06:17:48;;;;;;;15.38;5.38;;;;;;;;;;5048925;28;20080;-70
2023/06/06 06:20:15;;;;;;;14.82;5.72;;;;;;;;;;5044758;28;20406;-70
2023/06/06 06:22:42;;;;;;;11.10;4.93;;;;;;;;;;5052738;28;20522;-71
2023/06/06 06:25:14;;;;;;;10.77;5.72;;;;;;;;;;5050525;28;20397;-86
2023/06/06 06:27:41;;;;;;;15.57;5.90;;;;;;;;;;5015583;28;20630;-85
2023/06/06 06:30:08;;;;;;;9.15;4.93;;;;;;;;;;5031696;28;20052;-82
2023/06/06 06:32:34;;;;;;;12.02;5.40;;;;;;;;;;5014708;28;20046;-82
2023/06/06 06:35:04;;;;;;;14.50;5.38;;;;;;;;;;5016101;28;20045;-81
2023/06/06 06:37:30;;;;;;;15.23;5.43;;;;;;;;;;5049868;28;20052;-82
2023/06/06 06:39:57;;;;;;;12.55;5.40;;;;;;;;;;5034908;28;20403;-84
2023/06/06 06:42:23;;;;;;;11.90;5.32;;;;;;;;;;5067727;28;20045;-84
2023/06/06 06:44:49;;;;;;;;;;;;;;;;;;5085467;28;20052;-84
2023/06/06 06:47:15;;;;;;;9.35;4.68;;;;;;;;;;5050565;28;20615;-84
2023/06/06 06:49:41;;;;;;;;;;;;;;;;;;5083578;28;20053;-84
2023/06/06 06:52:07;;;;;;;14.13;5.25;;;;;;;;;;5034755;28;19925;-83
2023/06/06 06:54:35;;;;;;;11.07;5.25;;;;;;;;;;5051405;28;20053;-84
2023/06/06 06:57:02;;;;;;;14.23;4.82;;;;;;;;;;5030459;28;20050;-84
2023/06/06 06:59:28;;;;;;;13.23;5.05;;;;;;;;;;5033790;28;20107;-84
2023/06/06 07:01:54;;;;;;;;;;;;;;;;;;5018717;28;20155;-84
2023/06/06 07:04:21;;;;;;;11.23;4.63;;;;;;;;;;5032876;28;19935;-85
2023/06/06 07:06:47;;;;;;;13.30;5.00;;;;;;;;;;5033913;28;20060;-83
2023/06/06 07:09:14;;;;;;;12.52;5.15;;;;;;;;;;5032336;28;20050;-83
2023/06/06 07:11:40;;;;;;;14.93;4.55;;;;;;;;;;5014900;28;20048;-83
2023/06/06 07:14:06;;;;;;;13.27;5.10;;;;;;;;;;5014612;28;20132;-84
2023/06/06 07:16:33;;;;;;;12.02;4.53;;;;;;;;;;5024244;28;20041;-84
2023/06/06 07:19:00;;;;;;;10.27;4.63;;;;;;;;;;5029984;28;20126;-83
2023/06/06 07:21:26;;;;;;;;;;;;;;;;;;5035219;28;20056;-84
2023/06/06 07:23:52;;;;;;;12.52;4.85;;;;;;;;;;5050399;28;19928;-84
2023/06/06 07:26:21;;;;;;;10.45;4.82;;;;;;;;;;5050015;28;20041;-84
2023/06/06 07:28:47;;;;;;;8.80;4.68;;;;;;;;;;5030549;28;20049;-84
2023/06/06 07:31:14;;;;;;;9.98;4.60;;;;;;;;;;5014977;28;20099;-88
2023/06/06 07:33:41;;;;;;;10.30;4.70;;;;;;;;;;5033404;28;20391;-83
2023/06/06 07:36:07;;;;;;;11.25;4.75;;;;;;;;;;5049722;28;20079;-83
2023/06/06 07:38:34;;;;;;;7.93;4.38;;;;;;;;;;5046780;28;20467;-82
2023/06/06 07:41:00;;;;;;;11.10;5.00;;;;;;;;;;5031134;28;20132;-84
2023/06/06 07:43:26;;;;;;;;;;;;;;;;;;5051734;28;20444;-87
2023/06/06 07:45:52;;;;;;;10.52;4.45;;;;;;;;;;5033351;28;19924;-85
2023/06/06 07:48:18;;;;;;;;;;;;;;;;;;5030503;28;20042;-84
2023/06/06 07:50:44;;;;;;;12.38;4.80;;;;;;;;;;5023868;28;19921;-84
2023/06/06 07:53:11;;;;;;;11.90;4.40;;;;;;;;;;5033383;28;20049;-87
2023/06/06 07:55:37;;;;;;;13.48;4.55;;;;;;;;;;5036656;28;20042;-87
2023/06/06 07:58:10;;;;;;;9.43;4.40;;;;;;;;;;5036761;28;20075;-86
2023/06/06 08:00:36;;;;;;;12.75;4.40;;;;;;;;;;5033796;28;20147;-85
2023/06/06 08:03:03;;;;;;;11.98;4.85;;;;;;;;;;5039143;28;20091;-84
2023/06/06 08:05:29;;;;;;;9.27;4.32;;;;;;;;;;5028478;28;20512;-85
2023/06/06 08:07:55;;;;;;;9.45;4.38;;;;;;;;;;5050396;28;20057;-84
2023/06/06 08:10:21;;;;;;;;;;;;;;;;;;5023476;28;20405;-84
2023/06/06 08:12:47;;;;;;;11.40;4.55;;;;;;;;;;5042261;28;19921;-84
2023/06/06 08:15:14;;;;;;;10.95;4.00;;;;;;;;;;5046655;28;20037;-82
2023/06/06 08:17:40;;;;;;;8.55;4.30;;;;;;;;;;5021466;28;20322;-82
2023/06/06 08:20:08;;;;;;;;;;;;;;;;;;5021057;28;20364;-82
2023/06/06 08:22:37;;;;;;;12.35;4.72;;;;;;;;;;5028202;28;20489;-83
2023/06/06 08:25:04;;;;;;;7.80;4.57;;;;;;;;;;5040136;28;20049;-84
2023/06/06 08:27:31;;;;;;;11.13;4.50;;;;;;;;;;5028642;28;20052;-84
2023/06/06 08:29:57;;;;;;;10.93;4.43;;;;;;;;;;5036983;28;20562;-83
2023/06/06 08:32:23;;;;;;;;;;;;;;;;;;5046493;28;20045;-85
2023/06/06 08:34:49;;;;;;;12.02;4.82;;;;;;;;;;5049361;28;19931;-86
2023/06/06 08:37:15;;;;;;;9.18;4.55;;;;;;;;;;5049837;28;20045;-86
2023/06/06 08:39:44;;;;;;;12.60;5.78;;;;;;;;;;5033222;28;20102;-85
2023/06/06 08:42:11;;;;;;;14.82;6.60;;;;;;;;;;5049593;28;20048;-86
2023/06/06 08:44:38;;;;;;;16.77;7.35;;;;;;;;;;5039310;28;20058;-86
2023/06/06 08:47:05;;;;;;;9.07;4.78;;;;;;;;;;5048147;28;20041;-81
2023/06/06 08:49:32;;;;;;;12.27;5.30;;;;;;;;;;5013874;28;20135;-81
2023/06/06 08:51:59;;;;;;;10.77;5.13;;;;;;;;;;5049318;28;20071;-80
2023/06/06 08:54:26;;;;;;;9.30;4.43;;;;;;;;;;5044277;28;20068;-81
2023/06/06 08:56:54;;;;;;;8.00;4.07;;;;;;;;;;5038457;28;20142;-83
2023/06/06 08:59:20;;;;;;;11.88;4.55;;;;;;;;;;5047575;28;20402;-83
2023/06/06 09:01:48;;;;;;;12.98;5.95;;;;;;;;;;5016163;28;20059;-83
2023/06/06 09:04:15;;;;;;;9.15;4.88;;;;;;;;;;5026652;28;20042;-83
2023/06/06 09:06:44;;;;;;;7.30;4.25;;;;;;;;;;5045361;28;20411;-71
2023/06/06 09:09:11;;;;;;;9.15;4.75;;;;;;;;;;5048510;28;20457;-81
2023/06/06 09:11:37;;;;;;;13.57;6.03;;;;;;;;;;5048479;28;20060;-81
2023/06/06 09:14:05;;;;;;;7.53;3.95;;;;;;;;;;5069108;28;20462;-80
2023/06/06 09:16:34;;;;;;;11.93;4.20;;;;;;;;;;5048337;28;20410;-75
2023/06/06 09:19:04;;;;;;;7.95;4.00;;;;;;;;;;5045076;28;20056;-75
2023/06/06 09:21:33;;;;;;;10.05;3.90;;;;;;;;;;5040283;28;20050;-72
2023/06/06 09:23:59;;;;;;;13.73;4.63;;;;;;;;;;5037439;28;20042;-86
2023/06/06 09:26:26;;;;;;;12.18;4.85;;;;;;;;;;5038931;28;20091;-86
2023/06/06 09:28:52;;;;;;;10.18;4.68;;;;;;;;;;5050770;28;20077;-86
2023/06/06 09:31:34;;;;;;;8.23;4.13;;;;;;;;;;5034325;28;20092;-72
2023/06/06 09:34:00;;;;;;;8.73;4.30;;;;;;;;;;5041965;28;20045;-85
2023/06/06 09:36:27;;;;;;;14.05;5.00;;;;;;;;;;5033664;28;20052;-80
2023/06/06 09:38:54;;;;;;;7.72;4.13;;;;;;;;;;5031080;28;20045;-80
2023/06/06 09:41:21;;;;;;;9.77;5.07;;;;;;;;;;5034686;28;20076;-80
2023/06/06 09:43:48;;;;;;;10.60;4.88;;;;;;;;;;5030134;28;20054;-80
2023/06/06 09:46:17;;;;;;;12.82;4.70;;;;;;;;;;5025464;28;20048;-80
2023/06/06 09:48:53;;;;;;;9.85;4.40;;;;;;;;;;5053234;28;20695;-80
2023/06/06 09:51:20;;;;;;;8.65;4.28;;;;;;;;;;5037252;28;20055;-82
2023/06/06 09:53:51;;;;;;;7.93;3.75;;;;;;;;;;5054204;28;20127;-80
2023/06/06 09:56:19;;;;;;;6.75;3.83;;;;;;;;;;5046374;28;20060;-80
2023/06/06 09:58:46;;;;;;;11.38;4.88;;;;;;;;;;5019561;28;20057;-80
2023/06/06 10:01:12;;;;;;;9.55;4.85;;;;;;;;;;5037698;28;20136;-79
2023/06/06 10:03:40;;;;;;;8.73;4.05;;;;;;;;;;5043457;28;20462;-80
2023/06/06 10:06:07;;;;;;;10.68;4.95;;;;;;;;;;5017315;28;20045;-79
2023/06/06 10:08:34;;;;;;;9.65;4.10;;;;;;;;;;5025214;28;20060;-85
2023/06/06 10:11:01;;;;;;;9.57;4.18;;;;;;;;;;5032619;28;20065;-84
2023/06/06 10:13:28;;;;;;;8.02;3.85;;;;;;;;;;5003513;28;20390;-86
2023/06/06 10:15:55;;;;;;;10.13;4.28;;;;;;;;;;5016303;28;20045;-83
2023/06/06 10:18:22;;;;;;;9.52;4.20;;;;;;;;;;5052352;28;20053;-84
2023/06/06 10:20:48;;;;;;;7.38;3.83;;;;;;;;;;5035317;28;20139;-84
2023/06/06 10:23:14;;;;;;;9.05;4.30;;;;;;;;;;5047849;28;20060;-84
2023/06/06 10:25:40;;;;;;;12.88;4.47;;;;;;;;;;5042970;28;20095;-81
2023/06/06 10:28:15;;;;;;;7.95;3.80;;;;;;;;;;5034549;28;20402;-79
2023/06/06 10:30:44;;;;;;;8.63;3.67;;;;;;;;;;5050644;28;20140;-80
2023/06/06 10:33:13;;;;;;;9.18;4.38;;;;;;;;;;5048800;28;20126;-84
2023/06/06 10:35:40;;;;;;;9.38;3.72;;;;;;;;;;5015499;28;20045;-86
2023/06/06 10:38:09;;;;;;;11.35;4.78;;;;;;;;;;5024870;28;20045;-84
2023/06/06 10:40:52;;;;;;;8.55;4.22;;;;;;;;;;5062466;28;20044;-87
2023/06/06 10:43:33;;;;;;;6.43;3.78;;;;;;;;;;5010824;28;20078;-89
2023/06/06 10:46:05;;;;;;;9.93;4.53;;;;;;;;;;5012328;28;20140;-86
2023/06/06 10:48:31;;;;;;;;;;;;;;;;;;5035612;28;20047;-88
2023/06/06 10:50:57;;;;;;;8.80;3.60;;;;;;;;;;5026492;28;19921;-93
2023/06/06 10:53:23;;;;;;;;;;;;;;;;;;5017925;28;20037;-89
2023/06/06 10:55:49;;;;;;;9.40;4.13;;;;;;;;;;5022366;28;19939;-83
2023/06/06 10:58:24;;;;;;;5.85;3.08;;;;;;;;;;5033450;28;20859;-89
2023/06/06 11:00:56;;;;;;;8.93;3.67;;;;;;;;;;5026680;28;20057;-83
2023/06/06 11:03:32;;;;;;;9.02;3.58;;;;;;;;;;5030423;28;20045;-84
2023/06/06 11:05:59;;;;;;;;;;;;;;;;;;5061316;28;20414;-85
2023/06/06 11:08:32;;;;;;;8.07;4.73;;;;;;;;;;5005448;28;20374;-89
2023/06/06 11:11:16;;;;;;;8.82;3.80;;;;;;;;;;4992936;28;20041;-85
2023/06/06 11:13:55;;;;;;;11.63;4.43;;;;;;;;;;5008317;28;20155;-89
2023/06/06 11:16:51;;;;;;;9.85;3.90;;;;;;;;;;5022285;28;20045;-88
2023/06/06 11:19:19;;;;;;;9.10;3.75;;;;;;;;;;5006300;28;20045;-87
2023/06/06 11:21:50;;;;;;;8.13;4.10;;;;;;;;;;5004486;28;20520;-83
2023/06/06 11:24:18;;;;;;;6.50;3.58;;;;;;;;;;5030967;28;20048;-83
2023/06/06 11:26:44;;;;;;;5.40;3.08;;;;;;;;;;5010001;28;20041;-86
2023/06/06 11:29:11;;;;;;;10.82;3.63;;;;;;;;;;5011513;28;20932;-86
2023/06/06 11:31:38;;;;;;;9.07;3.65;;;;;;;;;;4990613;28;20057;-85
2023/06/06 11:34:08;;;;;;;6.15;3.38;;;;;;;;;;5012539;28;20048;-87
2023/06/06 11:36:35;;;;;;;9.90;3.90;;;;;;;;;;5022709;28;20122;-83
2023/06/06 11:39:02;;;;;;;9.50;3.75;;;;;;;;;;5042662;28;20041;-79
2023/06/06 11:41:29;;;;;;;6.90;2.95;;;;;;;;;;5052211;28;20075;-79
2023/06/06 11:43:55;;;;;;;6.55;2.75;;;;;;;;;;5024817;28;20057;-79
2023/06/06 11:46:22;;;;;;;8.95;3.58;;;;;;;;;;5032341;28;20044;-79
2023/06/06 11:48:56;;;;;;;8.73;3.58;;;;;;;;;;5031799;28;20140;-79
2023/06/06 11:51:22;;;;;;;5.80;2.92;;;;;;;;;;5020099;28;20055;-88
2023/06/06 11:53:48;;;;;;;8.15;2.97;;;;;;;;;;5008895;28;20045;-85
2023/06/06 11:56:15;;;;;;;9.60;3.70;;;;;;;;;;5024793;28;20079;-80
2023/06/06 11:58:41;;;;;;;12.20;3.67;;;;;;;;;;5051689;28;20053;-80
2023/06/06 12:01:09;;;;;;;11.13;3.67;;;;;;;;;;5034473;28;20044;-80
2023/06/06 12:03:37;;;;;;;7.43;3.58;;;;;;;;;;5033544;28;20053;-80
2023/06/06 12:06:04;;;;;;;7.28;3.13;;;;;;;;;;5034929;28;20099;-80
2023/06/06 12:08:33;;;;;;;6.55;3.13;;;;;;;;;;5018655;28;20056;-79
2023/06/06 12:11:19;;;;;;;7.75;3.00;;;;;;;;;;5035418;28;20527;-80
2023/06/06 12:13:45;;;;;;;8.10;3.38;;;;;;;;;;5038108;28;20049;-79
2023/06/06 12:16:11;;;;;;;8.88;3.40;;;;;;;;;;5022715;28;20046;-80
2023/06/06 12:18:47;;;;;;;8.90;3.40;;;;;;;;;;5014113;28;20479;-79
2023/06/06 12:21:16;;;;;;;9.30;3.33;;;;;;;;;;5033155;28;20098;-80
2023/06/06 12:23:43;;;;;;;8.55;3.30;;;;;;;;;;5038887;28;20064;-80
2023/06/06 12:26:13;;;;;;;7.38;3.22;;;;;;;;;;5031441;28;20048;-79
2023/06/06 12:28:56;;;;;;;8.73;3.50;;;;;;;;;;5023746;28;20049;-85
2023/06/06 12:31:23;;;;;;;7.35;3.45;;;;;;;;;;5051047;28;20049;-79
2023/06/06 12:33:49;;;;;;;6.18;3.13;;;;;;;;;;5049195;28;20102;-80
2023/06/06 12:36:15;;;;;;;11.40;3.83;;;;;;;;;;5037415;28;20436;-81
2023/06/06 12:38:41;;;;;;;9.80;4.18;;;;;;;;;;5034343;28;20044;-88
2023/06/06 12:41:09;;;;;;;6.72;3.15;;;;;;;;;;5034318;28;20067;-82
2023/06/06 12:43:35;;;;;;;6.22;3.20;;;;;;;;;;5051969;28;20041;-82
2023/06/06 12:46:01;;;;;;;6.80;3.60;;;;;;;;;;5033701;28;20037;-82
2023/06/06 12:48:27;;;;;;;10.27;3.78;;;;;;;;;;5041600;28;20064;-82
2023/06/06 12:50:55;;;;;;;9.95;3.70;;;;;;;;;;5044668;28;20044;-80
2023/06/06 12:53:21;;;;;;;7.40;3.40;;;;;;;;;;5040557;28;20088;-83
2023/06/06 12:55:47;;;;;;;7.47;3.70;;;;;;;;;;5033917;28;20049;-83
2023/06/06 12:58:13;;;;;;;9.23;3.78;;;;;;;;;;5033651;28;20045;-83
2023/06/06 13:00:39;;;;;;;7.95;3.72;;;;;;;;;;5033211;28;20072;-82
2023/06/06 13:03:05;;;;;;;10.57;4.40;;;;;;;;;;5013756;28;20055;-83
2023/06/06 13:05:32;;;;;;;10.20;3.47;;;;;;;;;;5033440;28;20095;-83
2023/06/06 13:07:58;;;;;;;7.45;3.72;;;;;;;;;;5053289;28;20076;-82
2023/06/06 13:10:24;;;;;;;9.07;3.92;;;;;;;;;;5051419;28;20045;-82
2023/06/06 13:12:50;;;;;;;8.65;3.85;;;;;;;;;;5053628;28;20512;-83
2023/06/06 13:15:17;;;;;;;6.95;3.58;;;;;;;;;;5021479;28;20051;-83
2023/06/06 13:17:43;;;;;;;15.25;4.10;;;;;;;;;;5053280;28;20045;-83
2023/06/06 13:20:10;;;;;;;9.32;3.55;;;;;;;;;;5020097;28;20505;-83
2023/06/06 13:22:36;;;;;;;10.43;3.92;;;;;;;;;;5037876;28;20107;-82
2023/06/06 13:25:03;;;;;;;8.68;3.60;;;;;;;;;;5036828;28;20045;-81
2023/06/06 13:27:29;;;;;;;11.15;3.97;;;;;;;;;;5053968;28;20041;-83
2023/06/06 13:29:55;;;;;;;9.43;3.83;;;;;;;;;;5043431;28;20076;-82
2023/06/06 13:32:22;;;;;;;6.28;3.15;;;;;;;;;;5036731;28;20482;-83
2023/06/06 13:34:49;;;;;;;9.77;4.45;;;;;;;;;;5069068;28;20057;-83
2023/06/06 13:37:15;;;;;;;8.88;3.80;;;;;;;;;;5069933;28;20041;-84
2023/06/06 13:39:41;;;;;;;8.90;4.00;;;;;;;;;;5018972;28;20060;-82
2023/06/06 13:42:09;;;;;;;11.88;3.72;;;;;;;;;;5067590;28;20029;-87
2023/06/06 13:44:35;;;;;;;11.02;3.83;;;;;;;;;;5051998;28;20056;-80
2023/06/06 13:47:08;;;;;;;9.27;3.42;;;;;;;;;;5052708;28;20052;-80
2023/06/06 13:49:36;;;;;;;9.38;3.80;;;;;;;;;;5032485;28;20041;-80
2023/06/06 13:52:02;;;;;;;9.02;3.97;;;;;;;;;;5045490;28;20064;-77
2023/06/06 13:54:28;;;;;;;7.93;3.22;;;;;;;;;;5052138;28;20547;-80
2023/06/06 13:56:54;;;;;;;9.10;4.00;;;;;;;;;;5086040;28;20490;-82
2023/06/06 13:59:21;;;;;;;9.75;3.90;;;;;;;;;;5052772;28;20394;-83
2023/06/06 14:01:50;;;;;;;8.00;3.17;;;;;;;;;;5053604;28;20049;-82
2023/06/06 14:04:16;;;;;;;8.38;3.30;;;;;;;;;;5064614;28;20092;-83
2023/06/06 14:06:42;;;;;;;10.00;3.65;;;;;;;;;;5053478;28;20064;-82
2023/06/06 14:09:08;;;;;;;10.02;3.78;;;;;;;;;;5050860;28;20383;-82
2023/06/06 14:11:36;;;;;;;8.02;3.58;;;;;;;;;;5069252;28;20074;-81
2023/06/06 14:14:02;;;;;;;12.75;4.25;;;;;;;;;;5035569;28;20055;-81
2023/06/06 14:16:28;;;;;;;9.52;3.90;;;;;;;;;;5051928;28;20113;-82
2023/06/06 14:18:54;;;;;;;6.75;3.22;;;;;;;;;;5051102;28;20061;-80
2023/06/06 14:23:56;;;;;;;10.13;3.97;;;;;;;;;;5051151;28;20494;-83
2023/06/06 14:26:22;;;;;;;8.90;3.67;;;;;;;;;;5051522;28;20772;-84
2023/06/06 14:28:49;;;;;;;7.03;3.22;;;;;;;;;;5015478;28;20044;-85
2023/06/06 14:31:16;;;;;;;11.40;4.15;;;;;;;;;;5035044;28;20044;-84
2023/06/06 14:33:43;;;;;;;8.77;3.60;;;;;;;;;;5035534;28;20152;-85
2023/06/06 14:36:10;;;;;;;8.63;3.75;;;;;;;;;;5033761;28;20125;-85
2023/06/06 14:38:36;;;;;;;12.05;3.75;;;;;;;;;;5051884;28;20052;-88
2023/06/06 14:41:02;;;;;;;12.30;3.90;;;;;;;;;;5034475;28;20052;-81
2023/06/06 14:43:28;;;;;;;11.93;3.30;;;;;;;;;;5052208;28;20053;-83
2023/06/06 14:45:54;;;;;;;9.27;3.80;;;;;;;;;;5050957;28;20041;-79
2023/06/06 14:48:20;;;;;;;10.07;3.50;;;;;;;;;;5048900;28;20037;-77